Time;durP1;ratioP1;P1;durP2;ratioP2;P2;SDS_P1;SDS_P2;PMS_P1;PMS_P2;Temp;Humidity;BMP_temperature;BMP_pressure;BME280_temperature;BME280_humidity;BME280_pressure;Samples;Min_cycle;Max_cycle;Signal;HPM_P1;HPM_P2
2022/10/25 00:01:47;;;;;;;0.22;0.22;;;;;;;14.41;78.83;100704.91;5127027;28;20551;-89
2022/10/25 00:04:17;;;;;;;0.20;0.20;;;;;;;14.33;79.32;100704.38;5117974;28;20053;-89
2022/10/25 00:06:50;;;;;;;0.20;0.20;;;;;;;14.30;79.16;100713.25;5108114;28;20039;-90
2022/10/25 00:09:30;;;;;;;0.40;0.40;;;;;;;14.43;78.59;100713.59;5139153;28;20032;-88
2022/10/25 00:12:01;;;;;;;0.20;0.20;;;;;;;14.38;78.87;100714.72;5133217;28;20549;-88
2022/10/25 00:14:32;;;;;;;2.53;0.82;;;;;;;14.44;78.56;100706.53;5098653;28;20066;-88
2022/10/25 00:17:03;;;;;;;0.22;0.22;;;;;;;14.42;78.78;100711.88;5117319;28;20019;-89
2022/10/25 00:19:34;;;;;;;1.40;1.05;;;;;;;14.30;79.41;100712.41;5111975;28;20042;-89
2022/10/25 00:22:07;;;;;;;0.60;0.60;;;;;;;14.36;79.27;100720.06;5124964;28;20023;-88
2022/10/25 00:24:49;;;;;;;3.53;1.40;;;;;;;14.41;78.61;100719.84;5113534;28;20144;-89
2022/10/25 00:27:23;;;;;;;1.55;1.45;;;;;;;14.27;79.37;100717.81;5104552;29;20078;-90
2022/10/25 00:30:04;;;;;;;0.45;0.45;;;;;;;14.32;79.00;100721.13;5104587;28;20043;-89
2022/10/25 00:32:51;;;;;;;0.32;0.32;;;;;;;14.29;79.10;100722.13;5107223;29;20046;-89
2022/10/25 00:35:22;;;;;;;0.88;0.88;;;;;;;14.23;79.87;100716.22;5123689;28;20050;-89
2022/10/25 00:37:56;;;;;;;0.38;0.38;;;;;;;14.23;79.52;100714.44;5120972;28;20031;-87
2022/10/25 00:40:26;;;;;;;0.38;0.38;;;;;;;14.32;79.20;100713.22;5127538;28;20051;-89
2022/10/25 00:42:57;;;;;;;0.20;0.20;;;;;;;14.41;78.57;100715.47;5118524;28;20039;-89
2022/10/25 00:45:29;;;;;;;1.75;0.68;;;;;;;14.19;79.55;100719.91;5122534;28;20062;-87
2022/10/25 00:48:03;;;;;;;3.75;0.80;;;;;;;14.21;79.63;100724.22;5120830;28;20133;-89
2022/10/25 00:50:51;;;;;;;1.85;1.00;;;;;;;14.28;79.05;100724.81;5126602;28;20382;-88
2022/10/25 00:53:27;;;;;;;3.83;1.02;;;;;;;14.24;79.47;100729.34;5117034;28;20034;-88
2022/10/25 00:56:06;;;;;;;0.45;0.45;;;;;;;14.16;79.63;100724.41;5159912;28;20331;-88
2022/10/25 00:58:39;;;;;;;0.30;0.30;;;;;;;14.15;79.68;100730.63;5134899;28;20330;-89
2022/10/25 01:01:13;;;;;;;0.30;0.30;;;;;;;14.24;78.96;100733.78;5111022;28;20037;-88
2022/10/25 01:03:50;;;;;;;0.40;0.40;;;;;;;14.13;79.59;100732.44;5108856;28;20372;-88
2022/10/25 01:06:50;;;;;;;0.55;0.55;;;;;;;14.13;79.54;100742.16;5141418;28;20074;-89
2022/10/25 01:09:24;;;;;;;1.33;1.33;;;;;;;14.11;79.78;100747.47;5136632;28;20055;-89
2022/10/25 01:11:55;;;;;;;1.45;0.73;;;;;;;14.19;79.20;100744.53;5121242;28;20100;-87
2022/10/25 01:14:28;;;;;;;0.30;0.30;;;;;;;14.33;78.80;100749.25;5107509;28;20125;-88
2022/10/25 01:17:02;;;;;;;;;;;;;;;14.22;79.59;100747.03;5142129;28;20284;-89
2022/10/25 01:19:51;;;;;;;1.65;1.23;;;;;;;14.24;79.49;100744.34;5124290;28;19922;-88
2022/10/25 01:22:41;;;;;;;0.40;0.40;;;;;;;14.38;78.79;100747.25;5140585;28;20339;-89
2022/10/25 01:25:48;;;;;;;2.13;0.55;;;;;;;14.30;79.08;100738.81;5137615;28;20355;-89
2022/10/25 01:28:56;;;;;;;0.40;0.40;;;;;;;14.17;79.50;100741.94;5154719;28;20042;-89
2022/10/25 01:31:36;;;;;;;3.85;1.42;;;;;;;14.28;78.95;100745.91;5143170;28;20046;-88
2022/10/25 01:34:16;;;;;;;0.20;0.20;;;;;;;14.23;79.28;100754.03;5120798;28;20107;-88
2022/10/25 01:36:59;;;;;;;2.58;1.55;;;;;;;14.25;79.33;100749.53;5111329;28;20042;-88
2022/10/25 01:39:34;;;;;;;9.73;0.87;;;;;;;14.12;80.05;100751.00;5121463;28;20057;-88
2022/10/25 01:42:22;;;;;;;0.75;0.75;;;;;;;14.14;79.83;100755.28;5143702;28;20023;-89
2022/10/25 01:45:52;;;;;;;0.20;0.20;;;;;;;14.22;79.39;100764.66;5090749;28;20356;-89
2022/10/25 01:48:46;;;;;;;0.52;0.52;;;;;;;14.19;79.68;100760.38;5016939;29;20071;-88
2022/10/25 01:51:17;;;;;;;0.20;0.20;;;;;;;14.14;80.02;100763.19;5088605;29;20082;-89
2022/10/25 01:54:00;;;;;;;0.30;0.30;;;;;;;14.19;79.89;100764.78;5111166;28;20082;-89
2022/10/25 01:56:48;;;;;;;0.28;0.28;;;;;;;14.14;79.96;100762.31;5139372;28;20045;-89
2022/10/25 01:59:52;;;;;;;2.83;1.13;;;;;;;14.21;79.42;100765.56;5082723;28;20055;-89
2022/10/25 02:02:52;;;;;;;1.17;0.60;;;;;;;14.31;78.79;100761.63;5102878;28;20054;-89
2022/10/25 02:05:54;;;;;;;0.30;0.30;;;;;;;14.33;79.08;100762.44;5139362;28;20050;-88
2022/10/25 02:08:54;;;;;;;0.88;0.38;;;;;;;14.37;78.56;100763.16;5116135;28;20059;-89
2022/10/25 02:11:35;;;;;;;4.13;1.55;;;;;;;14.18;79.35;100761.28;5119378;28;20145;-89
2022/10/25 02:14:36;;;;;;;0.20;0.20;;;;;;;14.23;79.08;100763.72;5109992;28;20065;-88
2022/10/25 02:17:11;;;;;;;0.55;0.55;;;;;;;14.29;78.68;100766.09;5102428;29;20163;-88
2022/10/25 02:19:58;;;;;;;0.63;0.63;;;;;;;14.19;79.07;100762.13;5086743;29;20126;-88
2022/10/25 02:22:33;;;;;;;0.20;0.20;;;;;;;14.20;79.09;100766.50;5099919;28;20067;-88
2022/10/25 02:25:08;;;;;;;0.40;0.40;;;;;;;14.22;79.20;100765.50;5109135;28;20514;-88
2022/10/25 02:27:43;;;;;;;2.75;1.38;;;;;;;14.18;79.33;100761.28;5089647;28;20126;-88
2022/10/25 02:30:13;;;;;;;0.20;0.20;;;;;;;14.19;79.05;100763.00;5090621;28;20035;-88
2022/10/25 02:33:00;;;;;;;0.80;0.80;;;;;;;14.17;78.94;100776.25;5077058;28;20038;-88
2022/10/25 02:35:34;;;;;;;0.20;0.20;;;;;;;14.23;79.03;100769.00;5116850;28;20059;-88
2022/10/25 02:38:08;;;;;;;0.35;0.35;;;;;;;14.31;78.69;100772.19;5096999;28;20042;-88
2022/10/25 02:40:38;;;;;;;0.28;0.28;;;;;;;14.25;79.06;100780.38;5085437;29;20414;-88
2022/10/25 02:43:15;;;;;;;0.80;0.73;;;;;;;14.15;79.16;100767.56;5070892;28;20113;-86
2022/10/25 02:46:13;;;;;;;12.05;0.57;;;;;;;14.13;79.38;100784.38;5116374;29;20074;-88
2022/10/25 02:49:09;;;;;;;1.45;1.35;;;;;;;14.13;79.69;100777.31;5134977;28;20110;-88
2022/10/25 02:51:40;;;;;;;0.30;0.30;;;;;;;14.16;79.37;100777.19;5104430;29;20056;-88
2022/10/25 02:54:12;;;;;;;0.30;0.30;;;;;;;14.16;79.25;100776.31;5094865;28;20555;-88
2022/10/25 02:56:51;;;;;;;0.68;0.68;;;;;;;14.11;79.52;100781.78;5116369;29;20031;-87
2022/10/25 02:59:34;;;;;;;0.20;0.20;;;;;;;14.13;79.68;100785.22;5132100;28;20043;-90
2022/10/25 03:02:25;;;;;;;0.40;0.40;;;;;;;14.08;80.03;100795.13;5105910;29;20062;-89
2022/10/25 03:05:01;;;;;;;0.30;0.30;;;;;;;14.20;79.50;100795.50;5093312;28;20142;-88
2022/10/25 03:07:32;;;;;;;0.50;0.50;;;;;;;14.10;79.94;100795.88;5093015;29;20035;-88
2022/10/25 03:10:09;;;;;;;0.40;0.40;;;;;;;14.27;78.97;100796.97;5116814;23;20054;-89
2022/10/25 03:12:49;;;;;;;0.20;0.20;;;;;;;14.17;79.62;100797.34;5097320;28;20047;-89
2022/10/25 03:15:19;;;;;;;0.20;0.20;;;;;;;14.19;79.53;100801.72;5088066;29;20043;-88
2022/10/25 03:17:55;;;;;;;0.22;0.22;;;;;;;14.13;79.59;100798.41;5071194;28;20094;-89
2022/10/25 03:20:35;;;;;;;0.50;0.50;;;;;;;14.13;79.37;100787.84;5068585;29;20044;-88
2022/10/25 03:23:06;;;;;;;0.40;0.40;;;;;;;14.12;80.05;100787.94;5098818;28;20478;-89
2022/10/25 03:25:40;;;;;;;2.72;1.00;;;;;;;14.15;79.74;100804.50;5101036;29;20028;-88
2022/10/25 03:28:10;;;;;;;1.48;1.38;;;;;;;14.20;79.53;100795.50;5101628;28;20075;-89
2022/10/25 03:30:48;;;;;;;2.35;1.38;;;;;;;14.13;79.95;100798.41;5088982;29;20028;-89
2022/10/25 03:33:30;;;;;;;0.30;0.30;;;;;;;14.16;80.52;100793.03;5065374;29;20075;-88
2022/10/25 03:36:01;;;;;;;0.20;0.20;;;;;;;14.17;80.82;100807.91;5084757;29;20043;-88
2022/10/25 03:38:32;;;;;;;0.52;0.43;;;;;;;14.21;81.06;100807.78;5097361;28;20135;-88
2022/10/25 03:41:04;;;;;;;1.05;0.95;;;;;;;14.12;82.04;100807.25;5069454;29;20334;-86
2022/10/25 03:43:35;;;;;;;0.77;0.63;;;;;;;14.06;82.32;100804.00;5078409;29;20123;-87
2022/10/25 03:46:06;;;;;;;0.22;0.22;;;;;;;14.14;81.79;100813.31;5107828;29;20036;-87
2022/10/25 03:48:53;;;;;;;0.28;0.28;;;;;;;14.13;81.62;100810.75;5070793;29;20044;-88
2022/10/25 03:51:29;;;;;;;0.20;0.20;;;;;;;14.16;81.77;100815.91;5089965;29;20050;-89
2022/10/25 03:54:06;;;;;;;0.40;0.40;;;;;;;14.12;81.90;100809.03;5093011;29;20405;-89
2022/10/25 03:56:56;;;;;;;0.20;0.20;;;;;;;14.09;81.65;100819.72;5106692;28;20063;-90
2022/10/25 04:00:13;;;;;;;0.68;0.68;;;;;;;14.23;80.99;100822.63;5074650;29;20052;-88
2022/10/25 04:03:05;;;;;;;0.30;0.30;;;;;;;14.12;81.35;100825.72;5092353;28;20044;-89
2022/10/25 04:05:51;;;;;;;0.20;0.20;;;;;;;14.13;81.31;100827.44;5087101;29;20031;-88
2022/10/25 04:08:25;;;;;;;12.27;1.95;;;;;;;14.14;81.31;100826.53;5102023;28;20043;-88
2022/10/25 04:11:03;;;;;;;0.20;0.20;;;;;;;14.07;81.34;100825.06;5062328;29;20032;-88
2022/10/25 04:13:34;;;;;;;0.55;0.55;;;;;;;14.07;81.33;100827.69;5096515;28;20052;-86
2022/10/25 04:16:08;;;;;;;0.60;0.60;;;;;;;14.12;81.13;100832.78;5081021;29;20039;-86
2022/10/25 04:18:39;;;;;;;0.60;0.40;;;;;;;14.07;81.16;100830.34;5096231;29;20063;-87
2022/10/25 04:21:09;;;;;;;0.73;0.73;;;;;;;14.07;81.24;100832.09;5081322;29;20027;-87
2022/10/25 04:23:40;;;;;;;0.43;0.43;;;;;;;14.02;81.87;100832.28;5073145;29;20055;-87
2022/10/25 04:26:13;;;;;;;0.28;0.28;;;;;;;14.06;81.17;100835.66;5066712;29;20008;-87
2022/10/25 04:28:44;;;;;;;;;;;;;;;14.10;80.96;100838.09;5080213;29;20051;-86
2022/10/25 04:31:14;;;;;;;0.30;0.30;;;;;;;14.07;81.23;100840.88;5080360;29;19919;-87
2022/10/25 04:33:49;;;;;;;1.52;0.98;;;;;;;14.14;80.80;100844.13;5057177;29;20051;-86
2022/10/25 04:36:20;;;;;;;0.40;0.40;;;;;;;14.11;80.85;100847.75;5102569;29;20036;-87
2022/10/25 04:38:51;;;;;;;0.60;0.60;;;;;;;14.05;80.64;100850.63;5103638;29;20166;-87
2022/10/25 04:41:22;;;;;;;0.95;0.82;;;;;;;14.09;80.95;100856.66;5104083;29;20027;-86
2022/10/25 04:43:52;;;;;;;0.73;0.73;;;;;;;14.04;81.07;100854.19;5102314;29;20039;-86
2022/10/25 04:46:23;;;;;;;0.20;0.20;;;;;;;14.01;81.32;100851.66;5085085;29;20055;-86
2022/10/25 04:48:53;;;;;;;0.30;0.30;;;;;;;14.02;81.12;100850.75;5077075;29;20048;-87
2022/10/25 04:51:24;;;;;;;0.65;0.63;;;;;;;14.00;81.31;100847.31;5079055;29;20391;-87
2022/10/25 04:53:55;;;;;;;0.20;0.20;;;;;;;14.01;81.00;100857.81;5081233;29;20071;-87
2022/10/25 04:56:27;;;;;;;6.35;0.85;;;;;;;13.98;81.04;100860.56;5055097;29;20027;-86
2022/10/25 04:58:58;;;;;;;0.85;0.73;;;;;;;14.05;80.61;100855.91;5085184;28;20052;-86
2022/10/25 05:01:28;;;;;;;0.30;0.30;;;;;;;14.00;80.98;100857.88;5065026;29;20068;-87
2022/10/25 05:03:59;;;;;;;0.20;0.20;;;;;;;13.99;80.82;100853.53;5061651;29;20425;-86
2022/10/25 05:06:29;;;;;;;0.55;0.55;;;;;;;14.02;80.68;100850.75;5078418;29;20036;-87
2022/10/25 05:09:00;;;;;;;0.25;0.25;;;;;;;14.03;80.81;100854.25;5089510;29;20032;-86
2022/10/25 05:11:31;;;;;;;7.20;1.83;;;;;;;14.03;80.31;100852.47;5088362;29;20123;-86
2022/10/25 05:14:01;;;;;;;9.93;0.50;;;;;;;14.04;80.31;100853.34;5088812;29;20034;-87
2022/10/25 05:16:33;;;;;;;0.30;0.30;;;;;;;14.01;80.20;100851.66;5067186;29;20187;-86
2022/10/25 05:19:04;;;;;;;0.40;0.40;;;;;;;13.96;80.64;100848.34;5097746;29;20044;-86
2022/10/25 05:21:34;;;;;;;0.70;0.70;;;;;;;13.92;80.38;100859.97;5110542;28;20092;-87
2022/10/25 05:24:05;;;;;;;0.20;0.20;;;;;;;13.85;80.88;100872.50;5081419;29;20491;-87
2022/10/25 05:26:35;;;;;;;11.32;1.00;;;;;;;13.94;80.42;100873.91;5095909;29;20064;-87
2022/10/25 05:29:06;;;;;;;0.43;0.43;;;;;;;13.89;80.55;100878.53;5070030;29;20425;-87
2022/10/25 05:31:39;;;;;;;0.30;0.30;;;;;;;13.79;81.21;100870.97;5114358;28;20040;-86
2022/10/25 05:34:10;;;;;;;;;;;;;;;13.88;80.47;100872.41;5079552;29;20044;-86
2022/10/25 05:36:40;;;;;;;0.57;0.57;;;;;;;13.88;80.56;100869.78;5112902;28;20423;-86
2022/10/25 05:39:11;;;;;;;1.35;1.13;;;;;;;13.82;80.41;100876.13;5086714;29;20042;-86
2022/10/25 05:41:41;;;;;;;0.30;0.30;;;;;;;13.95;79.91;100878.28;5063577;29;20408;-87
2022/10/25 05:44:13;;;;;;;0.30;0.30;;;;;;;13.84;80.57;100873.44;5097425;29;20064;-87
2022/10/25 05:46:44;;;;;;;0.30;0.30;;;;;;;13.91;79.72;100884.63;5082180;29;20038;-87
2022/10/25 05:49:15;;;;;;;0.52;0.52;;;;;;;13.80;80.53;100883.22;5078873;29;20273;-87
2022/10/25 05:51:45;;;;;;;0.55;0.50;;;;;;;13.74;80.98;100882.59;5081566;29;20071;-86
2022/10/25 05:54:15;;;;;;;0.20;0.20;;;;;;;13.76;80.89;100894.81;5076913;29;20067;-86
2022/10/25 05:56:46;;;;;;;0.80;0.80;;;;;;;13.77;81.01;100893.03;5095592;29;20079;-87
2022/10/25 05:59:16;;;;;;;0.35;0.35;;;;;;;13.80;80.50;100891.16;5097822;28;20598;-86
2022/10/25 06:01:47;;;;;;;0.40;0.40;;;;;;;13.77;80.74;100899.16;5092475;29;20047;-87
2022/10/25 06:04:17;;;;;;;0.30;0.30;;;;;;;13.80;80.54;100909.59;5074918;29;20051;-87
2022/10/25 06:06:50;;;;;;;0.20;0.20;;;;;;;13.84;80.39;100905.91;5078980;29;20032;-86
2022/10/25 06:09:21;;;;;;;1.38;1.00;;;;;;;13.87;80.36;100910.25;5090381;29;20064;-86
2022/10/25 06:11:51;;;;;;;0.47;0.47;;;;;;;13.86;80.01;100911.16;5077052;29;20513;-86
2022/10/25 06:14:22;;;;;;;0.30;0.30;;;;;;;13.73;80.69;100918.66;5098233;29;22104;-87
2022/10/25 06:16:52;;;;;;;0.30;0.30;;;;;;;13.74;80.39;100920.38;5095415;29;20631;-87
2022/10/25 06:19:23;;;;;;;1.13;1.05;;;;;;;13.76;80.49;100922.97;5098893;29;20340;-86
2022/10/25 06:21:54;;;;;;;0.40;0.40;;;;;;;13.67;80.98;100924.19;5085189;29;20035;-86
2022/10/25 06:24:24;;;;;;;0.35;0.35;;;;;;;13.75;80.19;100923.88;5116686;28;20452;-87
2022/10/25 06:26:54;;;;;;;0.32;0.32;;;;;;;13.90;79.72;100923.28;5064688;29;20036;-86
2022/10/25 06:29:25;;;;;;;1.55;1.45;;;;;;;13.88;79.74;100930.44;5098575;29;20039;-86
2022/10/25 06:31:55;;;;;;;3.30;2.00;;;;;;;13.93;79.64;100936.38;5094585;29;20482;-86
2022/10/25 06:34:26;;;;;;;0.85;0.65;;;;;;;13.87;79.68;100947.16;5099526;28;20377;-86
2022/10/25 06:36:56;;;;;;;2.78;1.98;;;;;;;13.89;79.88;100941.81;5048663;29;20064;-87
2022/10/25 06:39:27;;;;;;;0.65;0.65;;;;;;;13.85;80.09;100954.28;5074075;29;20051;-86
2022/10/25 06:41:57;;;;;;;0.20;0.20;;;;;;;13.84;79.59;100958.66;5096506;29;20042;-87
2022/10/25 06:44:27;;;;;;;1.95;1.27;;;;;;;13.93;79.22;100961.88;5070129;29;20055;-87
2022/10/25 06:46:59;;;;;;;0.20;0.20;;;;;;;13.97;79.41;100958.22;5084855;29;20416;-86
2022/10/25 06:49:29;;;;;;;0.30;0.30;;;;;;;13.99;78.98;100966.94;5081749;29;20052;-87
2022/10/25 06:52:00;;;;;;;0.55;0.55;;;;;;;14.05;78.92;100973.78;5112270;28;20094;-88
2022/10/25 06:54:30;;;;;;;0.40;0.40;;;;;;;14.06;78.96;100979.00;5092338;28;20044;-87
2022/10/25 06:57:01;;;;;;;0.40;0.40;;;;;;;14.05;79.33;100979.91;5081292;28;20039;-86
2022/10/25 06:59:31;;;;;;;0.30;0.30;;;;;;;14.01;79.06;100986.19;5079447;28;20043;-86
2022/10/25 07:02:01;;;;;;;4.95;0.77;;;;;;;14.03;79.08;100984.38;5083918;29;20064;-87
2022/10/25 07:04:32;;;;;;;0.30;0.30;;;;;;;14.06;79.05;100984.25;5092633;29;20143;-87
2022/10/25 07:07:02;;;;;;;0.30;0.30;;;;;;;14.10;78.92;100995.56;5083745;29;20042;-87
2022/10/25 07:09:33;;;;;;;0.30;0.30;;;;;;;14.09;79.47;100993.84;5090914;28;20096;-87
2022/10/25 07:12:03;;;;;;;0.25;0.25;;;;;;;14.17;78.80;100997.06;5044672;29;20426;-87
2022/10/25 07:14:34;;;;;;;0.30;0.30;;;;;;;14.18;79.07;101004.06;5078079;29;20425;-88
2022/10/25 07:17:04;;;;;;;0.20;0.20;;;;;;;14.19;79.29;101010.19;5084337;29;20085;-87
2022/10/25 07:19:35;;;;;;;0.30;0.30;;;;;;;14.16;79.29;101012.03;5090079;28;20044;-88
2022/10/25 07:22:05;;;;;;;0.30;0.30;;;;;;;14.22;78.73;101016.19;5099085;28;20050;-86
2022/10/25 07:24:36;;;;;;;0.40;0.40;;;;;;;14.19;78.89;101004.91;5079561;29;20118;-87
2022/10/25 07:27:07;;;;;;;0.28;0.28;;;;;;;14.22;78.92;101005.63;5104010;29;20028;-87
2022/10/25 07:29:37;;;;;;;0.30;0.30;;;;;;;14.26;78.64;101007.25;5097385;29;20039;-87
2022/10/25 07:32:08;;;;;;;0.20;0.20;;;;;;;14.23;78.99;101012.66;5116661;28;21083;-87
2022/10/25 07:34:38;;;;;;;0.30;0.30;;;;;;;14.26;78.81;101015.19;5086419;29;20584;-87
2022/10/25 07:37:09;;;;;;;0.52;0.52;;;;;;;14.25;79.39;101026.66;5103560;29;20031;-87
2022/10/25 07:39:39;;;;;;;0.30;0.30;;;;;;;14.22;79.48;101026.75;5101530;29;20062;-86
2022/10/25 07:42:10;;;;;;;0.20;0.20;;;;;;;14.22;79.50;101020.63;5101171;29;20432;-88
2022/10/25 07:44:40;;;;;;;0.40;0.40;;;;;;;14.27;79.91;101024.81;5088655;29;20553;-88
2022/10/25 07:47:11;;;;;;;0.40;0.40;;;;;;;14.26;79.24;101031.00;5105287;29;20031;-87
2022/10/25 07:49:41;;;;;;;0.57;0.57;;;;;;;14.21;79.96;101032.09;5097297;29;20126;-86
2022/10/25 07:52:12;;;;;;;0.20;0.20;;;;;;;14.17;79.85;101034.00;5102307;29;20494;-86
2022/10/25 07:54:43;;;;;;;0.98;0.63;;;;;;;14.17;80.12;101031.34;5098116;29;20126;-86
2022/10/25 07:57:13;;;;;;;0.30;0.30;;;;;;;14.22;79.72;101036.47;5098816;29;20028;-87
2022/10/25 07:59:44;;;;;;;0.25;0.25;;;;;;;14.12;80.34;101026.25;5114295;28;20043;-86
2022/10/25 08:02:14;;;;;;;0.40;0.40;;;;;;;14.10;80.38;101029.88;5073829;29;20074;-87
2022/10/25 08:04:45;;;;;;;2.65;1.30;;;;;;;14.05;80.93;101031.81;5081006;29;20048;-87
2022/10/25 08:07:15;;;;;;;0.30;0.30;;;;;;;14.14;80.09;101027.06;5116200;28;20032;-86
2022/10/25 08:09:46;;;;;;;0.22;0.22;;;;;;;14.10;80.54;101022.78;5108501;28;20055;-86
2022/10/25 08:12:16;;;;;;;0.30;0.30;;;;;;;14.14;80.61;101031.47;5112652;28;20042;-87
2022/10/25 08:14:46;;;;;;;0.47;0.47;;;;;;;14.23;80.27;101032.91;5079893;29;20349;-87
2022/10/25 08:17:17;;;;;;;0.30;0.30;;;;;;;14.22;80.11;101028.56;5095911;29;20039;-87
2022/10/25 08:19:47;;;;;;;0.20;0.20;;;;;;;14.20;80.61;101030.38;5081188;29;20052;-86
2022/10/25 08:22:19;;;;;;;0.20;0.20;;;;;;;14.30;80.86;101023.84;5095420;29;20128;-87
2022/10/25 08:24:49;;;;;;;1.08;1.08;;;;;;;14.39;80.13;101026.13;5065643;29;20553;-87
2022/10/25 08:27:20;;;;;;;0.30;0.30;;;;;;;14.29;80.26;101023.00;5091459;29;20050;-87
2022/10/25 08:29:50;;;;;;;1.65;1.55;;;;;;;14.39;79.96;101030.53;5079451;29;20138;-87
2022/10/25 08:32:21;;;;;;;5.32;1.58;;;;;;;14.41;79.82;101024.31;5090640;29;20030;-86
2022/10/25 08:34:51;;;;;;;0.85;0.77;;;;;;;14.53;79.65;101025.59;5073148;29;20054;-87
2022/10/25 08:37:22;;;;;;;0.38;0.38;;;;;;;14.50;79.43;101024.88;5083070;29;20035;-87
2022/10/25 08:39:52;;;;;;;0.88;0.88;;;;;;;14.42;79.43;101031.28;5107032;28;20098;-86
2022/10/25 08:42:35;;;;;;;0.30;0.30;;;;;;;14.42;78.96;101023.34;5095541;29;20548;-87
2022/10/25 08:45:21;;;;;;;0.30;0.30;;;;;;;14.46;78.92;101029.41;5079124;29;20043;-87
2022/10/25 08:47:53;;;;;;;0.70;0.65;;;;;;;14.37;78.58;101025.31;5093062;29;20054;-86
2022/10/25 08:50:39;;;;;;;0.52;0.52;;;;;;;14.43;78.39;101033.00;5093505;29;20035;-87
2022/10/25 08:53:19;;;;;;;0.88;0.57;;;;;;;14.39;78.33;101036.69;5095241;29;20043;-86
2022/10/25 08:55:50;;;;;;;0.70;0.70;;;;;;;14.51;78.54;101037.13;5081497;29;20454;-86
2022/10/25 08:58:30;;;;;;;0.52;0.52;;;;;;;14.47;77.53;101034.63;5079373;29;20044;-87
2022/10/25 09:01:09;;;;;;;0.60;0.60;;;;;;;14.44;77.49;101047.94;5083783;29;20110;-87
2022/10/25 09:03:40;;;;;;;0.30;0.30;;;;;;;14.47;77.17;101057.50;5079012;29;20540;-87
2022/10/25 09:06:38;;;;;;;0.32;0.30;;;;;;;14.55;76.96;101044.88;5112057;28;20063;-86
2022/10/25 09:09:10;;;;;;;0.30;0.30;;;;;;;14.47;75.59;101063.66;5079871;29;20599;-87
2022/10/25 09:11:54;;;;;;;0.30;0.30;;;;;;;14.52;75.17;101065.25;5088970;29;20394;-88
2022/10/25 09:14:35;;;;;;;;;;;;;;;14.51;76.02;101066.16;5096637;29;20050;-88
2022/10/25 09:17:15;;;;;;;1.90;0.70;;;;;;;14.64;75.88;101070.94;5112716;28;19973;-85
2022/10/25 09:19:49;;;;;;;0.68;0.68;;;;;;;14.56;75.00;101080.06;5093908;29;20059;-85
2022/10/25 09:22:45;;;;;;;2.45;1.55;;;;;;;14.58;75.32;101086.16;5059334;29;20044;-85
2022/10/25 09:25:21;;;;;;;0.22;0.22;;;;;;;14.54;75.12;101081.91;5098575;29;20036;-84
2022/10/25 09:28:07;;;;;;;0.20;0.20;;;;;;;14.59;75.51;101088.75;5094859;28;20750;-85
2022/10/25 09:30:42;;;;;;;0.30;0.30;;;;;;;14.53;75.11;101081.06;5082572;29;20050;-85
2022/10/25 09:33:15;;;;;;;0.50;0.50;;;;;;;14.54;75.08;101085.41;5075475;29;20126;-85
2022/10/25 09:35:53;;;;;;;5.22;0.93;;;;;;;14.55;75.84;101092.41;5107449;29;20566;-86
2022/10/25 09:38:28;;;;;;;0.63;0.63;;;;;;;14.60;75.78;101095.75;5096277;29;20115;-85
2022/10/25 09:41:04;;;;;;;0.30;0.30;;;;;;;14.59;75.78;101095.78;5099113;28;20114;-85
2022/10/25 09:43:39;;;;;;;1.08;1.00;;;;;;;14.60;75.75;101094.88;5069168;29;20076;-87
2022/10/25 09:46:21;;;;;;;2.20;1.60;;;;;;;14.58;75.83;101096.72;5116908;28;20458;-87
2022/10/25 09:48:57;;;;;;;0.20;0.20;;;;;;;14.58;76.30;101102.00;5095371;29;20050;-86
2022/10/25 09:51:38;;;;;;;0.20;0.20;;;;;;;14.64;75.96;101096.50;5116999;28;20036;-86
2022/10/25 09:54:27;;;;;;;0.20;0.20;;;;;;;14.63;76.20;101100.88;5095407;29;20031;-87
2022/10/25 09:56:58;;;;;;;0.50;0.50;;;;;;;14.64;76.50;101102.63;5088197;29;20063;-87
2022/10/25 09:59:29;;;;;;;1.10;1.05;;;;;;;14.68;76.97;101105.19;5083849;29;20052;-86
2022/10/25 10:01:59;;;;;;;0.30;0.30;;;;;;;14.66;75.81;101105.25;5066382;29;20039;-85
2022/10/25 10:04:36;;;;;;;0.65;0.65;;;;;;;14.73;75.22;101101.44;5095392;29;20115;-86
2022/10/25 10:07:19;;;;;;;0.60;0.60;;;;;;;14.86;75.31;101101.84;5075216;29;20035;-87
2022/10/25 10:09:54;;;;;;;0.20;0.20;;;;;;;14.81;75.30;101108.22;5080118;29;20047;-87
2022/10/25 10:12:32;;;;;;;6.60;1.27;;;;;;;14.81;75.87;101102.94;5103192;29;20090;-87
2022/10/25 10:15:10;;;;;;;0.20;0.20;;;;;;;14.87;75.85;101108.84;5094434;29;20051;-86
2022/10/25 10:17:41;;;;;;;0.20;0.20;;;;;;;14.77;75.89;101113.59;5088537;28;20042;-88
2022/10/25 10:20:15;;;;;;;0.20;0.20;;;;;;;14.84;75.87;101113.34;5103841;29;20032;-87
2022/10/25 10:22:51;;;;;;;0.40;0.40;;;;;;;14.86;75.93;101116.81;5106604;28;20353;-87
2022/10/25 10:25:27;;;;;;;0.20;0.20;;;;;;;14.82;75.36;101128.44;5106383;29;20024;-87
2022/10/25 10:27:58;;;;;;;0.20;0.20;;;;;;;14.81;75.74;101129.34;5121003;28;20039;-86
2022/10/25 10:30:29;;;;;;;1.52;1.42;;;;;;;14.95;75.63;101116.47;5104171;29;20024;-86
2022/10/25 10:33:01;;;;;;;1.30;1.20;;;;;;;14.90;75.99;101118.44;5098807;28;20462;-87
2022/10/25 10:35:34;;;;;;;5.70;1.00;;;;;;;14.89;75.97;101122.00;5097886;29;20063;-87
2022/10/25 10:38:26;;;;;;;0.50;0.50;;;;;;;14.93;75.78;101128.84;5084773;28;20502;-86
2022/10/25 10:41:13;;;;;;;0.30;0.30;;;;;;;14.93;75.44;101126.22;5115123;28;20094;-86
2022/10/25 10:43:44;;;;;;;0.30;0.30;;;;;;;14.95;75.55;101127.03;5115209;28;20075;-86
2022/10/25 10:46:16;;;;;;;0.30;0.30;;;;;;;15.04;75.71;101131.09;5099246;29;20058;-86
2022/10/25 10:48:53;;;;;;;0.50;0.50;;;;;;;15.04;75.63;101120.53;5085968;29;20417;-85
2022/10/25 10:51:55;;;;;;;0.85;0.85;;;;;;;15.12;75.03;101118.44;5072106;29;20107;-84
2022/10/25 10:54:29;;;;;;;2.63;0.80;;;;;;;15.10;75.07;101122.94;5090960;29;20039;-85
2022/10/25 10:57:01;;;;;;;0.25;0.25;;;;;;;15.16;75.54;101122.69;5067112;29;20099;-85
2022/10/25 10:59:54;;;;;;;0.57;0.55;;;;;;;15.23;75.36;101125.94;5113373;28;20055;-85
2022/10/25 11:02:34;;;;;;;0.20;0.20;;;;;;;15.32;75.35;101119.41;5111923;28;20023;-86
2022/10/25 11:05:19;;;;;;;4.88;1.42;;;;;;;15.38;74.22;101120.03;5096191;29;20502;-85
2022/10/25 11:07:58;;;;;;;0.20;0.20;;;;;;;15.42;73.61;101113.69;5113921;28;20060;-86
2022/10/25 11:10:31;;;;;;;0.40;0.40;;;;;;;15.49;73.28;101116.94;5097832;29;20470;-85
2022/10/25 11:13:13;;;;;;;;;;;;;;;15.66;72.50;101116.22;5114709;28;20043;-84
2022/10/25 11:16:02;;;;;;;0.50;0.50;;;;;;;15.80;72.96;101114.78;5119794;28;19978;-85
2022/10/25 11:18:35;;;;;;;1.30;1.00;;;;;;;15.75;71.36;101112.34;5106465;29;20047;-85
2022/10/25 11:21:33;;;;;;;0.25;0.25;;;;;;;15.82;71.10;101115.59;5127084;28;20085;-87
2022/10/25 11:24:19;;;;;;;0.63;0.63;;;;;;;15.74;71.69;101116.75;5121571;28;20060;-85
2022/10/25 11:26:55;;;;;;;0.20;0.20;;;;;;;15.82;70.89;101126.19;5071353;29;20066;-86
2022/10/25 11:29:49;;;;;;;0.20;0.20;;;;;;;15.83;71.40;101120.84;5090170;29;20039;-85
2022/10/25 11:32:57;;;;;;;0.30;0.30;;;;;;;15.91;71.59;101117.84;5116455;28;20138;-86
2022/10/25 11:35:52;;;;;;;0.65;0.57;;;;;;;16.01;71.46;101119.19;5085425;29;20051;-84
2022/10/25 11:39:00;;;;;;;0.38;0.38;;;;;;;16.46;69.06;101119.00;5099167;29;20055;-85
2022/10/25 11:41:53;;;;;;;0.43;0.43;;;;;;;16.52;68.56;101116.06;5101424;29;20036;-85
2022/10/25 11:45:18;;;;;;;0.68;0.68;;;;;;;16.63;68.86;101121.75;5103503;28;20044;-85
2022/10/25 11:48:06;;;;;;;0.25;0.25;;;;;;;16.53;67.62;101128.38;5086183;28;20193;-87
2022/10/25 11:51:01;;;;;;;2.03;0.88;;;;;;;16.42;68.05;101122.69;5087829;29;20071;-86
2022/10/25 11:53:32;;;;;;;0.20;0.20;;;;;;;16.48;68.73;101127.75;5102279;29;20055;-86
2022/10/25 11:56:19;;;;;;;0.98;0.57;;;;;;;16.38;68.03;101121.13;5102315;29;20028;-86
2022/10/25 11:58:49;;;;;;;1.05;0.75;;;;;;;16.35;68.96;101125.63;5104398;29;20525;-86
2022/10/25 12:01:44;;;;;;;0.50;0.50;;;;;;;16.33;68.06;101131.94;5098508;29;20048;-85
2022/10/25 12:04:45;;;;;;;0.20;0.20;;;;;;;16.34;68.67;101121.25;5097604;28;20032;-85
2022/10/25 12:07:35;;;;;;;0.30;0.30;;;;;;;16.29;68.15;101128.56;5118201;28;20024;-88
2022/10/25 12:10:20;;;;;;;0.20;0.20;;;;;;;16.21;68.79;101120.94;5082749;29;20047;-85
2022/10/25 12:12:56;;;;;;;0.20;0.20;;;;;;;16.16;68.96;101122.97;5095060;28;20039;-85